33V

Walden-Jackson County Airport

Walden, Colorado, USA
METAR K33V 212235Z AUTO 24007KT 10SM OVC095 25/05 A3036 RMK AO1
Observed Flight Rules
Jul-21 @ 22:35 UTC (28 minutes ago) Visual Flight Rules
Wind Visibility Clouds
240° at 7 knots 10 miles
  • Overcast at 9,500' AGL
Temperatures Readings
Current 25°C / 77°F
Dewpoint 5°C / 41°F
Humidity 28%
Altimeter 30.36" Hg
Pressure 1028 hPa
Elevation 2484
METAR K33V 212235Z AUTO 24007KT 10SM OVC095 25/05 A3036 RMK AO1
Observed Flight Rules
Jul-21 @ 22:35 UTC
(28 minutes ago)
VFR
Wind Visibility
240° at 7 knots 10 miles
Clouds
  • Overcast at 9,500' AGL
Temperature Dewpoint
25°C / 77°F 5°C / 41°F
Humidity Altimeter Pressure
28% 30.36" Hg 1028 hPa